createdAt,value
2023-05-19T00:10:01.718Z,3.10
2023-05-19T00:20:11.088Z,2.80
2023-05-19T00:30:15.761Z,4.00
2023-05-19T00:40:19.281Z,4.30
2023-05-19T00:50:23.820Z,3.80
2023-05-19T01:00:29.412Z,3.00
2023-05-19T01:10:33.636Z,3.60
2023-05-19T01:20:52.273Z,2.90
2023-05-19T01:30:59.731Z,3.50
2023-05-19T01:41:03.333Z,3.30
2023-05-19T01:51:07.057Z,3.00
2023-05-19T02:01:11.644Z,3.10
2023-05-19T02:11:19.278Z,2.70
2023-05-19T02:21:23.292Z,2.60
2023-05-19T02:31:27.036Z,2.20
2023-05-19T02:41:31.054Z,2.50
2023-05-19T02:51:34.831Z,2.80
2023-05-19T03:01:39.925Z,2.60
2023-05-19T03:11:44.005Z,2.80
2023-05-19T03:21:48.274Z,2.90
2023-05-19T03:31:52.275Z,4.50
2023-05-19T03:41:56.198Z,3.70
2023-05-19T03:52:03.305Z,4.30
2023-05-19T04:02:08.264Z,3.80
2023-05-19T04:12:15.683Z,3.20
2023-05-19T04:22:23.307Z,4.00
2023-05-19T04:32:26.557Z,3.80
2023-05-19T04:42:30.229Z,4.50
2023-05-19T04:52:34.019Z,4.90
2023-05-19T05:02:38.432Z,3.90
2023-05-19T05:12:47.512Z,4.20
2023-05-19T05:22:52.354Z,3.90
2023-05-19T05:32:56.283Z,3.20
2023-05-19T05:43:00.178Z,3.10
2023-05-19T05:53:06.036Z,3.30
2023-05-19T06:03:10.341Z,3.10
2023-05-19T06:13:15.815Z,3.40
2023-05-19T06:23:19.551Z,4.30
2023-05-19T06:33:24.663Z,4.70
2023-05-19T06:43:29.837Z,4.30
2023-05-19T06:53:34.258Z,4.20
2023-05-19T07:03:38.151Z,4.10
2023-05-19T07:13:42.108Z,4.00
2023-05-19T07:23:45.695Z,5.60
2023-05-19T07:33:49.553Z,4.90
2023-05-19T07:43:53.504Z,4.90
2023-05-19T07:53:57.872Z,5.70
2023-05-19T08:04:02.103Z,5.40
2023-05-19T08:14:05.905Z,5.40
2023-05-19T08:24:09.846Z,4.80
2023-05-19T08:34:13.446Z,4.20
2023-05-19T08:44:19.040Z,4.90
2023-05-19T08:54:29.875Z,5.40
2023-05-19T09:04:34.571Z,4.50
2023-05-19T09:14:41.897Z,4.30
2023-05-19T09:24:46.934Z,5.00
2023-05-19T09:34:50.538Z,5.30
2023-05-19T09:45:00.282Z,4.50
2023-05-19T09:55:03.814Z,5.70
2023-05-19T10:05:08.031Z,5.20
2023-05-19T10:15:17.687Z,5.20
2023-05-19T10:25:25.065Z,6.90
2023-05-19T10:35:49.948Z,4.70
2023-05-19T10:45:55.088Z,7.80
2023-05-19T10:56:03.374Z,7.00
2023-05-19T11:06:24.930Z,6.00
2023-05-19T11:16:28.677Z,6.80
2023-05-19T11:26:42.506Z,8.40
2023-05-19T11:36:47.738Z,7.00
2023-05-19T11:46:51.607Z,7.60
2023-05-19T11:56:55.338Z,8.90
2023-05-19T12:06:59.351Z,8.50
2023-05-19T12:17:10.274Z,8.80
2023-05-19T12:27:22.844Z,8.40
2023-05-19T12:37:29.381Z,9.80
2023-05-19T12:47:34.763Z,8.70
2023-05-19T12:57:40.932Z,10.50
2023-05-19T13:07:53.757Z,9.60
2023-05-19T13:17:58.445Z,9.10
2023-05-19T13:28:04.981Z,9.50
2023-05-19T13:38:10.854Z,10.70
2023-05-19T13:48:15.385Z,9.30
2023-05-19T13:58:19.724Z,10.90
2023-05-19T14:08:23.349Z,9.60
2023-05-19T14:18:26.640Z,12.40
2023-05-19T14:28:30.417Z,11.20
2023-05-19T14:38:37.822Z,9.70
2023-05-19T14:48:41.444Z,10.80
2023-05-19T14:58:45.321Z,10.80
2023-05-19T15:08:49.386Z,12.30
2023-05-19T15:18:53.395Z,13.30
2023-05-19T15:28:57.317Z,9.90
2023-05-19T15:39:00.353Z,11.10
2023-05-19T15:49:04.442Z,12.20
2023-05-19T15:59:08.219Z,14.20
2023-05-19T16:09:12.346Z,12.40
2023-05-19T16:19:16.118Z,13.40
2023-05-19T16:29:20.368Z,12.20
2023-05-19T16:39:24.252Z,15.70
2023-05-19T16:49:28.295Z,16.70
2023-05-19T16:59:31.894Z,13.50
2023-05-19T17:09:35.495Z,15.10
2023-05-19T17:19:39.179Z,12.80
2023-05-19T17:29:42.816Z,14.40
2023-05-19T17:39:46.985Z,14.80
2023-05-19T17:49:50.700Z,17.00
2023-05-19T17:59:55.837Z,15.70
2023-05-19T18:10:00.106Z,15.60
2023-05-19T18:20:03.790Z,16.80
2023-05-19T18:30:08.362Z,14.10
2023-05-19T18:40:11.343Z,14.90
2023-05-19T18:50:15.995Z,15.00
2023-05-19T19:00:20.321Z,14.10
2023-05-19T19:10:24.021Z,15.20
2023-05-19T19:20:27.745Z,12.30
2023-05-19T19:30:35.125Z,12.90
2023-05-19T19:40:39.037Z,12.60
2023-05-19T19:50:42.974Z,12.70
2023-05-19T20:00:46.518Z,10.80
2023-05-19T20:10:50.587Z,13.00
2023-05-19T20:20:57.976Z,14.60
2023-05-19T20:31:01.902Z,15.40
2023-05-19T20:41:06.060Z,14.10
2023-05-19T20:51:09.595Z,14.50
2023-05-19T21:01:13.305Z,15.20
2023-05-19T21:11:17.778Z,16.40
2023-05-19T21:21:21.410Z,18.20
2023-05-19T21:31:25.087Z,16.90
2023-05-19T21:41:29.702Z,17.70
2023-05-19T21:51:33.898Z,20.30
2023-05-19T22:01:37.535Z,19.90
2023-05-19T22:11:41.347Z,20.70
2023-05-19T22:21:51.784Z,20.00
2023-05-19T22:31:57.593Z,20.60
2023-05-19T22:42:02.068Z,20.50
2023-05-19T22:52:07.410Z,21.20
2023-05-19T23:02:11.030Z,18.60
2023-05-19T23:12:16.034Z,17.60
2023-05-19T23:22:19.806Z,17.10
2023-05-19T23:32:23.614Z,16.60
2023-05-19T23:42:28.217Z,15.80
2023-05-19T23:52:32.203Z,17.10
